This is the latest recevied weather packets stored in our database for station/object CQ0XVC-11. If no packets are shown the sender has not sent any weather packets the latest 1 day(s).
| Time | Temp. | Humidity | Pressure | Rain* | Wind** | Luminosity | Snow |
|---|---|---|---|---|---|---|---|
| 1778103862 | 10.56° C | 61% | 998.8 hPa | 0 mm | - | - | - |
| 1778103012 | 10.56° C | 60% | 998.8 hPa | 0 mm | - | - | - |
| 1778102956 | 10.56° C | 60% | 998.8 hPa | 0 mm | - | - | - |
| 1778102392 | 10.56° C | 59% | 998.8 hPa | 0 mm | - | - | - |
| 1778102049 | 11.11° C | 57% | 998.8 hPa | 0 mm | - | - | - |
| 1778100236 | 11.67° C | 57% | 998.5 hPa | 0 mm | - | - | - |
| 1778099390 | 12.22° C | 56% | 998.5 hPa | 0 mm | - | - | - |
| 1778099330 | 12.22° C | 56% | 998.5 hPa | 0 mm | - | - | - |
| 1778098454 | 12.78° C | 54% | 998.5 hPa | 0 mm | - | - | - |
| 1778097517 | 12.78° C | 52% | 998.3 hPa | 0 mm | - | - | - |
| 1778094495 | 15° C | 40% | 997.9 hPa | 0 mm | - | - | - |
| 1778093622 | 15.56° C | 37% | 997.7 hPa | 0 mm | - | - | - |
| 1778093588 | 15.56° C | 37% | 997.7 hPa | 0 mm | - | - | - |
| 1778093035 | 16.11° C | 32% | 997.7 hPa | 0 mm | - | - | - |
| 1778092682 | 16.67° C | 35% | 997.4 hPa | 0 mm | - | - | - |
| 1778092413 | 16.67° C | 36% | 997.5 hPa | 0 mm | - | - | - |
| 1778091775 | 16.67° C | 35% | 997.5 hPa | 0 mm | - | - | - |
| 1778090869 | 17.22° C | 31% | 997.4 hPa | 0 mm | - | - | - |
| 1778090566 | 17.78° C | 31% | 997.4 hPa | 0 mm | - | - | - |
| 1778090302 | 17.78° C | 30% | 997.5 hPa | 0 mm | - | - | - |
| 1778090264 | 17.78° C | 30% | 997.5 hPa | 0 mm | - | - | - |
| 1778089962 | 17.78° C | 30% | 997.3 hPa | 0 mm | - | - | - |
| 1778089660 | 17.78° C | 28% | 997.7 hPa | 0 mm | - | - | - |
| 1778089056 | 18.33° C | 29% | 997.6 hPa | 0 mm | - | - | - |
| 1778087582 | 18.33° C | 27% | 997.6 hPa | 0 mm | - | - | - |
* Rain since midnight (hover to see other rain measurements)
** Current wind speed in m/s (hover to see current wind gust speed)